Latest Weather Observations for Sydney - Observatory Hill

IDN60801

Issued at 3:03 pm EST Thursday 28 May 2020 (issued every 10 minutes, with the page automatically refreshed every 10 minutes)

About weather observations | Map of weather stations | Latest weather observations for NSW | Other Formats
Station Details ID: 066062 Name: SYDNEY (OBSERVATORY HILL) Lat: -33.86 Lon: 151.21 Height: 39.0 m
Data from the previous 72 hours. | See also: Recent months at Sydney - Observatory Hill

* Apparent temperature (App Temp) for Sydney - Observatory Hill is calculated using temperature observations collected at Sydney - Observatory Hill and wind observations collected at Fort Denison, as wind observations are not currently provided for Sydney - Observatory Hill.

Date/Time
EST
Temp
°C
App
Temp
°C
Dew
Point
°C
Rel
Hum
%
Delta-T
°C
Wind Press
QNH
hPa
Press
MSL
hPa
Rain since
9am
mm
Dir  Spd
km/h
Gust
km/h
Spd
kts
Gust
kts
28/03:00pm 22.3 20.8 10.5 47 6.5 SSE 9 - 5 - 1019.1 1019.1 0.0
28/02:30pm 22.4 21.1 9.9 45 6.8 SW 7 - 4 - 1019.1 1019.1 0.0
28/02:00pm 21.6 19.4 9.5 46 6.5 W 11 - 6 - 1019.2 1019.2 0.0
28/01:30pm 21.3 18.9 10.2 49 6.0 W 13 - 7 - 1019.2 1019.2 0.0
28/01:00pm 20.6 17.5 10.4 52 5.5 W 17 - 9 - 1019.6 1019.6 0.0
28/12:30pm 19.9 16.8 10.3 54 5.2 W 17 - 9 - 1020.0 1019.9 0.0
28/12:00pm 18.1 15.3 10.0 59 4.3 WNW 15 - 8 - 1020.4 1020.3 0.0
28/11:30am 17.5 14.5 10.6 64 3.7 WNW 17 - 9 - 1020.8 1020.7 0.0
28/11:00am 17.1 14.2 10.9 67 3.3 WNW 17 - 9 - 1021.2 1021.1 0.0
28/10:30am 15.7 12.8 10.9 73 2.6 WNW 17 - 9 - 1021.5 1021.4 0.0
28/10:00am 14.6 11.3 10.8 78 2.0 WNW 19 - 10 - 1021.9 1021.8 0.0
28/09:30am 13.5 10.6 10.9 84 1.4 WNW 17 - 9 - 1022.0 1021.9 0.0
28/09:00am 12.8 9.4 10.7 87 1.1 WNW 19 - 10 - 1021.9 1021.8 0.0
28/08:30am 12.4 9.0 10.6 89 0.9 WNW 19 - 10 - 1021.8 1021.7 0.0
28/08:00am 11.8 8.7 10.2 90 0.8 W 17 - 9 - 1021.5 1021.4 0.0
28/07:30am 11.6 8.8 10.0 90 0.8 W 15 - 8 - 1021.4 1021.3 0.0
28/07:00am 11.4 9.3 9.8 90 0.8 W 11 - 6 - 1021.1 1021.0 0.0
28/06:30am 11.3 8.8 9.6 89 0.9 WNW 13 - 7 - 1020.8 1020.7 0.0
28/06:00am 11.5 9.4 9.8 89 0.9 WNW 11 - 6 - 1020.6 1020.5 0.0
28/05:30am 11.7 10.0 9.9 89 0.9 WNW 9 - 5 - 1020.2 1020.1 0.0
28/05:00am 11.8 9.8 10.0 89 0.9 WNW 11 - 6 - 1020.1 1020.0 0.0
28/04:30am 12.0 10.0 10.2 89 0.9 WNW 11 - 6 - 1020.0 1019.9 0.0
28/04:00am 12.1 10.1 10.3 89 0.9 WNW 11 - 6 - 1020.1 1020.0 0.0
28/03:30am 12.3 10.0 10.5 89 0.9 W 13 - 7 - 1020.1 1020.0 0.0
28/03:00am 12.3 10.4 10.4 88 1.0 WNW 11 - 6 - 1020.4 1020.3 0.0
28/02:30am 12.4 9.4 10.5 88 1.0 WNW 17 - 9 - 1020.3 1020.2 0.0
28/02:00am 12.3 9.2 10.4 88 1.0 W 17 - 9 - 1020.3 1020.2 0.0
28/01:30am 12.4 9.7 10.5 88 1.0 W 15 - 8 - 1020.3 1020.2 0.0
28/01:00am 12.7 10.1 10.8 88 1.0 W 15 - 8 - 1020.1 1020.0 0.0
28/12:30am 12.7 10.5 10.8 88 1.0 W 13 - 7 - 1020.1 1020.0 0.0
28/12:00am 12.8 11.7 10.7 87 1.1 WNW 7 - 4 - 1020.2 1020.1 0.0
 
Date/Time
EST
Temp
°C
App
Temp
°C
Dew
Point
°C
Rel
Hum
%
Delta-T
°C
Wind Press
QNH
hPa
Press
MSL
hPa
Rain since
9am
mm
Dir  Spd
km/h
Gust
km/h
Spd
kts
Gust
kts
27/11:30pm 13.2 11.5 11.1 87 1.1 WNW 11 - 6 - 1020.5 1020.4 0.0
27/11:00pm 13.3 11.9 11.0 86 1.2 WNW 9 - 5 - 1020.8 1020.7 0.0
27/10:30pm 13.6 12.3 11.3 86 1.2 WNW 9 - 5 - 1021.0 1020.9 0.0
27/10:00pm 13.9 13.0 11.2 84 1.4 WNW 7 - 4 - 1021.1 1021.0 0.0
27/09:30pm 14.1 13.4 11.3 83 1.5 WNW 6 - 3 - 1021.1 1021.0 0.0
27/09:00pm 14.4 13.7 11.4 82 1.6 WNW 6 - 3 - 1021.1 1021.0 0.0
27/08:30pm 14.7 14.0 11.5 81 1.7 WNW 6 - 3 - 1021.2 1021.1 0.0
27/08:00pm 14.9 15.0 11.5 80 1.8 W 2 - 1 - 1021.0 1020.9 0.0
27/07:30pm 15.2 14.9 11.4 78 2.0 NNW 4 - 2 - 1021.1 1021.0 0.0
27/07:00pm 15.8 15.5 11.6 76 2.3 N 4 - 2 - 1020.9 1020.8 0.0
27/06:30pm 16.1 16.1 11.3 73 2.6 NE 2 - 1 - 1020.6 1020.5 0.0
27/06:00pm 16.1 15.8 11.5 74 2.5 SW 4 - 2 - 1020.3 1020.2 0.0
27/05:30pm 16.3 15.6 11.5 73 2.6 SSE 6 - 3 - 1020.0 1019.9 0.0
27/05:00pm 16.6 15.8 11.1 70 3.0 SE 6 - 3 - 1019.9 1019.8 0.0
27/04:30pm 17.1 15.7 10.9 67 3.3 SE 9 - 5 - 1019.9 1019.8 0.0
27/04:00pm 18.3 16.8 10.7 61 4.1 SSE 9 - 5 - 1019.9 1019.8 0.0
27/03:30pm 19.5 18.1 10.8 57 4.7 SSE 9 - 5 - 1019.9 1019.8 0.0
27/03:00pm 20.0 18.6 11.0 56 4.9 SSE 9 - 5 - 1019.9 1019.8 0.0
27/02:30pm 20.2 18.9 11.1 56 5.0 SSW 9 - 5 - 1020.2 1020.1 0.0
27/02:00pm 19.5 17.9 11.5 60 4.4 S 11 - 6 - 1020.4 1020.3 0.0
27/01:30pm 20.1 18.9 12.8 63 4.1 S 11 - 6 - 1020.6 1020.5 0.0
27/01:00pm 18.6 17.2 12.1 66 3.6 S 11 - 6 - 1020.9 1020.8 0.0
27/12:30pm 17.9 16.8 11.9 68 3.3 S 9 - 5 - 1021.1 1021.0 0.0
27/12:00pm 17.9 15.9 12.6 71 2.9 SSW 15 - 8 - 1021.3 1021.2 0.0
27/11:30am 17.4 15.7 12.5 73 2.7 SSW 13 - 7 - 1021.8 1021.7 0.0
27/11:00am 17.1 15.5 12.8 76 2.4 S 13 - 7 - 1022.3 1022.2 0.0
27/10:30am 15.8 14.8 12.4 80 1.9 SW 9 - 5 - 1022.6 1022.5 0.0
27/10:00am 14.7 12.4 11.7 82 1.6 WNW 15 - 8 - 1022.8 1022.7 0.0
27/09:30am 13.9 10.7 11.4 85 1.3 WNW 19 - 10 - 1022.9 1022.8 0.0
27/09:00am 13.2 10.3 11.1 87 1.1 W 17 - 9 - 1023.0 1022.9 6.2
27/08:30am 12.6 9.2 10.7 88 1.0 W 19 - 10 - 1023.1 1023.0 6.2
27/08:00am 12.4 9.0 10.6 89 0.9 WNW 19 - 10 - 1022.9 1022.8 6.2
27/07:30am 12.1 9.0 10.3 89 0.9 WNW 17 - 9 - 1022.8 1022.7 6.2
27/07:00am 11.8 9.4 9.9 88 1.0 WNW 13 - 7 - 1022.7 1022.6 6.2
27/06:30am 11.9 8.7 10.0 88 1.0 W 17 - 9 - 1022.3 1022.2 6.2
27/06:00am 12.1 8.6 10.2 88 1.0 W 19 - 10 - 1022.0 1021.9 6.2
27/05:30am 12.4 9.4 10.5 88 1.0 W 17 - 9 - 1022.0 1021.9 6.2
27/05:00am 12.6 9.2 10.7 88 1.0 W 19 - 10 - 1022.1 1022.0 6.2
27/04:30am 12.7 10.4 10.6 87 1.1 WNW 13 - 7 - 1022.1 1022.0 6.2
27/04:00am 13.0 10.5 11.1 88 1.0 NW 15 - 8 - 1022.4 1022.3 6.0
27/03:30am 13.2 10.0 11.3 88 1.0 W 19 - 10 - 1022.5 1022.4 6.0
27/03:00am 13.5 10.4 11.6 88 1.0 W 19 - 10 - 1022.7 1022.6 5.4
27/02:30am 13.7 11.0 11.6 87 1.1 WNW 17 - 9 - 1022.8 1022.7 5.2
27/02:00am 13.9 11.9 11.6 86 1.2 WNW 13 - 7 - 1023.0 1022.9 4.4
27/01:30am 14.1 12.9 11.6 85 1.3 NW 9 - 5 - 1023.2 1023.1 2.8
27/01:00am 13.9 13.1 11.2 84 1.4 N 6 - 3 - 1023.0 1022.9 2.6
27/12:30am 13.8 10.8 10.6 81 1.7 WNW 17 - 9 - 1023.1 1023.0 2.6
27/12:00am 14.2 11.0 11.2 82 1.6 WNW 19 - 10 - 1023.2 1023.1 2.6
 
Date/Time
EST
Temp
°C
App
Temp
°C
Dew
Point
°C
Rel
Hum
%
Delta-T
°C
Wind Press
QNH
hPa
Press
MSL
hPa
Rain since
9am
mm
Dir  Spd
km/h
Gust
km/h
Spd
kts
Gust
kts
26/11:30pm 14.3 11.5 11.3 82 1.6 WNW 17 - 9 - 1023.3 1023.2 2.6
26/11:00pm 14.3 12.2 11.3 82 1.6 W 13 - 7 - 1023.5 1023.4 2.6
26/10:30pm 14.3 11.8 11.1 81 1.7 WNW 15 - 8 - 1023.3 1023.2 2.6
26/10:00pm 14.4 11.8 10.8 79 1.9 WNW 15 - 8 - 1023.3 1023.2 2.6
26/09:30pm 15.3 12.8 10.9 75 2.3 WNW 15 - 8 - 1023.3 1023.2 2.6
26/09:00pm 15.7 13.6 11.3 75 2.4 SW 13 - 7 - 1023.1 1023.0 2.6
26/08:30pm 15.2 13.8 10.8 75 2.3 WSW 9 - 5 - 1022.9 1022.8 2.6
26/08:00pm 15.4 14.5 10.8 74 2.4 SW 6 - 3 - 1023.0 1022.9 2.6
26/07:30pm 15.6 14.2 10.8 73 2.6 SW 9 - 5 - 1022.9 1022.8 2.6
26/07:00pm 15.8 13.8 10.3 70 2.9 SW 11 - 6 - 1022.7 1022.6 2.6
26/06:30pm 16.8 14.8 10.2 65 3.5 SSW 11 - 6 - 1022.5 1022.4 2.6
26/06:00pm 17.0 14.4 9.2 60 4.0 SSE 13 - 7 - 1022.4 1022.3 2.6
26/05:30pm 17.0 14.5 8.2 56 4.5 S 11 - 6 - 1022.2 1022.1 2.6
26/05:00pm 17.1 13.5 8.3 56 4.5 SSE 17 - 9 - 1022.1 1022.0 2.6
26/04:30pm 17.5 13.1 8.9 57 4.5 SSE 22 - 12 - 1021.9 1021.8 2.6
26/04:00pm 17.7 13.8 9.3 58 4.4 SSE 20 - 11 - 1021.6 1021.5 2.6
26/03:30pm 17.5 15.2 10.6 64 3.7 S 13 - 7 - 1021.4 1021.3 2.6
26/03:00pm 18.0 14.5 10.1 60 4.2 S 19 - 10 - 1021.3 1021.2 2.6
26/02:30pm 18.3 13.6 9.4 56 4.7 SSE 24 - 13 - 1021.3 1021.2 2.6
26/02:00pm 19.2 14.2 9.4 53 5.2 SSE 26 - 14 - 1021.1 1021.0 2.6
26/01:30pm 19.2 13.7 9.1 52 5.3 SSE 28 - 15 - 1021.3 1021.2 2.6
26/01:00pm 18.7 14.3 10.5 59 4.4 SE 24 - 13 - 1021.7 1021.6 2.6
26/12:30pm 18.7 14.9 11.3 62 4.0 SSE 22 - 12 - 1021.7 1021.6 2.6
26/12:00pm 17.9 13.7 12.4 70 3.0 SE 26 - 14 - 1021.9 1021.8 2.6
26/11:30am 17.2 13.2 13.1 77 2.3 SE 26 - 14 - 1022.1 1022.0 2.6
26/11:00am 16.1 13.7 13.8 86 1.3 SSE 19 - 10 - 1022.6 1022.5 2.6
26/10:30am 16.2 13.9 14.6 90 0.9 SSE 20 - 11 - 1022.6 1022.5 2.0
26/10:00am 15.1 14.5 13.5 90 0.9 SW 9 - 5 - 1022.6 1022.5 2.0
26/09:30am 15.0 13.2 13.4 90 0.9 SE 15 - 8 - 1022.7 1022.6 0.2
26/09:00am 14.5 11.8 12.9 90 0.9 SW 19 - 10 - 1022.6 1022.5 47.0
26/08:30am 14.4 10.7 12.6 89 1.0 SW 24 - 13 - 1022.3 1022.2 46.8
26/08:00am 14.3 11.9 12.7 90 0.9 SSW 17 - 9 - 1022.2 1022.1 46.4
26/07:30am 14.2 11.2 12.4 89 1.0 SSW 20 - 11 - 1022.0 1021.9 45.8
26/07:00am 13.9 10.8 12.1 89 1.0 SSW 20 - 11 - 1021.9 1021.8 45.6
26/06:30am 13.9 10.8 12.1 89 1.0 SSW 20 - 11 - 1021.6 1021.5 44.6
26/06:00am 13.9 10.4 12.1 89 1.0 SSW 22 - 12 - 1021.5 1021.4 44.2
26/05:30am 13.8 10.2 12.0 89 1.0 SW 22 - 12 - 1021.2 1021.1 43.2
26/05:00am 13.9 11.3 11.9 88 1.1 SSW 17 - 9 - 1020.9 1020.8 42.0
26/04:30am 14.1 10.2 12.1 88 1.1 SSW 24 - 13 - 1020.5 1020.4 41.6
26/04:00am 14.0 11.0 12.0 88 1.1 SSW 19 - 10 - 1020.5 1020.4 41.0
26/03:30am 14.0 11.0 12.0 88 1.1 SSW 19 - 10 - 1020.6 1020.5 40.4
26/03:00am 13.8 10.6 11.8 88 1.1 SW 20 - 11 - 1020.4 1020.3 40.2
26/02:30am 13.8 10.2 11.8 88 1.1 SW 22 - 12 - 1020.4 1020.3 40.2
26/02:00am 13.8 9.0 11.8 88 1.1 SSW 28 - 15 - 1020.6 1020.5 40.2
26/01:30am 13.7 9.7 11.8 88 1.0 SW 24 - 13 - 1020.6 1020.5 40.2
26/01:00am 13.8 9.0 11.8 88 1.1 SW 28 - 15 - 1020.6 1020.5 40.0
26/12:30am 13.6 9.6 11.8 89 1.0 SSW 24 - 13 - 1020.7 1020.6 40.0
26/12:00am 13.6 9.2 11.8 89 1.0 SSW 26 - 14 - 1020.6 1020.5 40.0
 
Date/Time
EST
Temp
°C
App
Temp
°C
Dew
Point
°C
Rel
Hum
%
Delta-T
°C
Wind Press
QNH
hPa
Press
MSL
hPa
Rain since
9am
mm
Dir  Spd
km/h
Gust
km/h
Spd
kts
Gust
kts
25/11:30pm 13.7 9.4 11.9 89 1.0 SW 26 - 14 - 1020.8 1020.7 39.4
25/11:00pm 13.6 8.4 11.7 88 1.0 SW 30 - 16 - 1020.5 1020.4 39.0
25/10:30pm 13.8 9.1 12.0 89 1.0 SSW 28 - 15 - 1020.4 1020.3 39.0
25/10:00pm 13.9 10.8 12.1 89 1.0 WSW 20 - 11 - 1020.1 1020.0 38.4
25/09:30pm 14.0 10.5 12.2 89 1.0 SW 22 - 12 - 1020.1 1020.0 35.2
25/09:00pm 14.1 9.1 12.3 89 1.0 SSW 30 - 16 - 1020.1 1020.0 32.2
25/08:30pm 14.1 10.3 12.3 89 1.0 SSW 24 - 13 - 1019.6 1019.6 30.6
25/08:00pm 14.0 10.1 12.2 89 1.0 SW 24 - 13 - 1019.1 1019.1 27.6
25/07:30pm 13.9 9.2 12.1 89 1.0 SSW 28 - 15 - 1019.1 1019.1 22.8
25/07:00pm 14.0 8.5 12.0 88 1.1 SW 32 - 17 - 1018.8 1018.8 18.4
25/06:30pm 14.0 10.1 12.0 88 1.1 SW 24 - 13 - 1018.2 1018.2 13.8
25/06:00pm 14.1 9.1 12.1 88 1.1 SW 30 - 16 - 1017.9 1017.9 10.6
25/05:30pm 13.9 9.9 11.8 87 1.1 SW 24 - 13 - 1017.6 1017.6 8.6
25/05:00pm 14.0 9.2 11.5 85 1.3 SW 28 - 15 - 1017.7 1017.7 5.0
25/04:30pm 14.4 9.1 11.4 82 1.6 SSW 30 - 16 - 1017.3 1017.3 2.0
25/04:00pm 14.8 9.8 11.0 78 2.0 SSW 28 - 15 - 1017.2 1017.2 0.8
25/03:30pm 15.0 8.6 10.8 76 2.2 SW 35 - 19 - 1016.8 1016.8 0.4

Other formats

Comma delimited format used in spreadsheet applications
http://www.bom.gov.au/fwo/IDN60801/IDN60801.94768.axf

JavaScript Object Notation format (JSON) in row-major order
http://www.bom.gov.au/fwo/IDN60801/IDN60801.94768.json

Data quality

Most of these data are generated automatically and are frequently updated. Quality checks on data are not normally performed. It is possible for incorrect values to appear. Refer to information at About Latest Weather Observations and please check the disclaimer before using these data.